createdAt,value
2018-07-24T00:02:23.728Z,16.50
2018-07-24T00:04:55.177Z,15.83
2018-07-24T00:07:26.352Z,17.23
2018-07-24T00:09:57.163Z,16.53
2018-07-24T00:12:29.179Z,16.70
2018-07-24T00:15:00.380Z,17.00
2018-07-24T00:17:31.612Z,16.67
2018-07-24T00:20:03.076Z,16.37
2018-07-24T00:22:34.507Z,18.20
2018-07-24T00:25:05.955Z,18.63
2018-07-24T00:27:37.814Z,16.10
2018-07-24T00:30:08.571Z,16.63
2018-07-24T00:32:39.377Z,16.60
2018-07-24T00:35:10.574Z,18.43
2018-07-24T00:37:41.854Z,17.77
2018-07-24T00:40:13.289Z,17.57
2018-07-24T00:42:44.946Z,20.83
2018-07-24T00:45:16.594Z,19.33
2018-07-24T00:47:48.471Z,20.10
2018-07-24T00:50:19.830Z,18.40
2018-07-24T00:52:51.514Z,18.07
2018-07-24T00:55:23.550Z,18.10
2018-07-24T00:57:54.316Z,18.53
2018-07-24T01:00:26.057Z,19.07
2018-07-24T01:02:57.889Z,17.70
2018-07-24T01:05:28.995Z,19.27
2018-07-24T01:07:59.499Z,17.70
2018-07-24T01:10:31.095Z,19.10
2018-07-24T01:13:02.614Z,19.77
2018-07-24T01:15:34.218Z,17.10
2018-07-24T01:18:05.291Z,19.80
2018-07-24T01:20:37.510Z,19.57
2018-07-24T01:23:09.044Z,20.53
2018-07-24T01:25:39.864Z,20.53
2018-07-24T01:28:11.047Z,21.07
2018-07-24T01:30:42.356Z,19.07
2018-07-24T01:33:13.001Z,20.73
2018-07-24T01:35:43.549Z,18.37
2018-07-24T01:38:15.512Z,20.37
2018-07-24T01:40:47.009Z,19.37
2018-07-24T01:43:18.234Z,20.20
2018-07-24T01:45:49.660Z,20.27
2018-07-24T01:48:21.070Z,18.80
2018-07-24T01:50:51.975Z,19.40
2018-07-24T01:53:23.343Z,19.40
2018-07-24T01:55:55.410Z,18.77
2018-07-24T01:58:26.560Z,20.60
2018-07-24T02:01:02.039Z,20.20
2018-07-24T02:03:33.999Z,19.47
2018-07-24T02:06:05.029Z,18.97
2018-07-24T02:08:36.061Z,19.70
2018-07-24T02:11:07.078Z,20.33
2018-07-24T02:13:38.614Z,19.33
2018-07-24T02:16:09.916Z,21.00
2018-07-24T02:18:40.696Z,20.87
2018-07-24T02:21:11.628Z,20.37
2018-07-24T02:23:41.674Z,20.63
2018-07-24T02:26:12.399Z,19.83
2018-07-24T02:28:45.158Z,20.70
2018-07-24T02:31:16.188Z,21.17
2018-07-24T02:33:47.870Z,19.20
2018-07-24T02:36:17.316Z,20.00
2018-07-24T02:38:48.496Z,19.57
2018-07-24T02:41:19.469Z,20.53
2018-07-24T02:43:50.173Z,18.80
2018-07-24T02:46:22.126Z,18.47
2018-07-24T02:48:53.643Z,21.10
2018-07-24T02:51:24.985Z,20.73
2018-07-24T02:53:57.035Z,19.90
2018-07-24T02:56:28.325Z,19.93
2018-07-24T02:58:59.514Z,19.87
2018-07-24T03:01:31.721Z,19.33
2018-07-24T03:04:02.729Z,20.83
2018-07-24T03:06:34.596Z,20.10
2018-07-24T03:09:07.248Z,20.00
2018-07-24T03:11:39.199Z,21.90
2018-07-24T03:14:10.488Z,21.60
2018-07-24T03:16:41.881Z,20.93
2018-07-24T03:19:13.292Z,22.37
2018-07-24T03:21:44.956Z,19.40
2018-07-24T03:24:16.586Z,21.27
2018-07-24T03:26:48.209Z,21.07
2018-07-24T03:29:19.252Z,21.27
2018-07-24T03:31:50.907Z,21.37
2018-07-24T03:34:22.659Z,20.53
2018-07-24T03:36:54.032Z,20.57
2018-07-24T03:39:25.689Z,19.90
2018-07-24T03:41:56.380Z,21.73
2018-07-24T03:44:27.278Z,21.83
2018-07-24T03:46:58.794Z,20.53
2018-07-24T03:49:30.105Z,19.60
2018-07-24T03:52:01.191Z,18.17
2018-07-24T03:54:32.021Z,21.03
2018-07-24T03:57:03.917Z,19.50
2018-07-24T03:59:35.384Z,19.97
2018-07-24T04:02:06.481Z,18.53
2018-07-24T04:04:38.456Z,20.27
2018-07-24T04:07:09.380Z,19.67
2018-07-24T04:09:40.093Z,20.27
2018-07-24T04:12:11.057Z,21.13
2018-07-24T04:14:41.781Z,23.27
2018-07-24T04:17:13.252Z,20.77
2018-07-24T04:19:44.356Z,18.53
2018-07-24T04:22:15.949Z,21.23
2018-07-24T04:24:47.409Z,21.30
2018-07-24T04:27:18.789Z,19.10
2018-07-24T04:29:49.159Z,18.60
2018-07-24T04:32:20.691Z,20.90
2018-07-24T04:34:52.164Z,19.73
2018-07-24T04:37:23.051Z,19.60
2018-07-24T04:39:54.418Z,20.20
2018-07-24T04:42:26.300Z,21.10
2018-07-24T04:44:58.218Z,20.03
2018-07-24T04:47:28.587Z,21.00
2018-07-24T04:49:59.104Z,20.63
2018-07-24T04:52:31.324Z,20.90
2018-07-24T04:55:02.335Z,20.83
2018-07-24T04:57:34.164Z,18.53
2018-07-24T05:00:05.130Z,19.33
2018-07-24T05:02:36.707Z,19.90
2018-07-24T05:05:07.604Z,20.67
2018-07-24T05:07:38.709Z,19.10
2018-07-24T05:10:10.232Z,17.60
2018-07-24T05:12:41.774Z,20.17
2018-07-24T05:15:13.026Z,18.30
2018-07-24T05:17:43.752Z,18.23
2018-07-24T05:20:14.817Z,18.40
2018-07-24T05:22:45.994Z,18.60
2018-07-24T05:25:16.543Z,16.23
2018-07-24T05:27:47.800Z,18.93
2018-07-24T05:30:18.936Z,19.50
2018-07-24T05:32:49.784Z,17.43
2018-07-24T05:35:20.989Z,18.90
2018-07-24T05:37:52.417Z,17.30
2018-07-24T05:40:22.992Z,17.67
2018-07-24T05:42:54.089Z,17.50
2018-07-24T05:45:25.124Z,17.50
2018-07-24T05:47:56.101Z,16.87
2018-07-24T05:50:27.299Z,16.80
2018-07-24T05:52:58.120Z,16.40
2018-07-24T05:55:28.723Z,15.77
2018-07-24T05:58:00.036Z,16.77
2018-07-24T06:00:31.446Z,15.57
2018-07-24T06:03:02.923Z,17.30
2018-07-24T06:05:34.387Z,16.43
2018-07-24T06:08:06.098Z,16.00
2018-07-24T06:10:37.355Z,17.23
2018-07-24T06:13:09.002Z,16.13
2018-07-24T06:15:40.558Z,16.53
2018-07-24T06:18:12.324Z,15.47
2018-07-24T06:20:43.076Z,16.67
2018-07-24T06:23:14.624Z,15.80
2018-07-24T06:25:45.961Z,15.27
2018-07-24T06:28:16.492Z,16.37
2018-07-24T06:30:47.763Z,14.73
2018-07-24T06:33:19.072Z,14.50
2018-07-24T06:35:49.696Z,14.30
2018-07-24T06:38:22.533Z,15.53
2018-07-24T06:40:53.512Z,12.87
2018-07-24T06:43:24.380Z,14.63
2018-07-24T06:45:55.246Z,12.60
2018-07-24T06:48:26.220Z,12.47
2018-07-24T06:50:56.933Z,13.37
2018-07-24T06:53:28.219Z,12.83
2018-07-24T06:55:58.938Z,14.17
2018-07-24T06:58:30.057Z,12.50
2018-07-24T07:01:01.404Z,11.97
2018-07-24T07:03:32.591Z,10.80
2018-07-24T07:06:03.845Z,10.00
2018-07-24T07:08:35.405Z,8.63
2018-07-24T07:11:06.061Z,10.20
2018-07-24T07:13:37.314Z,7.70
2018-07-24T07:16:08.565Z,8.07
2018-07-24T07:18:38.778Z,8.43
2018-07-24T07:21:09.768Z,7.90
2018-07-24T07:23:40.723Z,7.47
2018-07-24T07:26:12.519Z,8.60
2018-07-24T07:28:43.468Z,8.73
2018-07-24T07:31:14.959Z,9.40
2018-07-24T07:33:46.000Z,8.00
2018-07-24T07:36:16.922Z,8.63
2018-07-24T07:38:48.740Z,8.60
2018-07-24T07:41:19.790Z,8.50
2018-07-24T07:43:50.996Z,8.33
2018-07-24T07:46:21.932Z,9.60
2018-07-24T07:48:53.671Z,9.90
2018-07-24T07:51:24.459Z,7.70
2018-07-24T07:53:55.104Z,6.73
2018-07-24T07:56:26.323Z,7.63
2018-07-24T07:58:57.489Z,6.90
2018-07-24T08:01:27.603Z,7.17
2018-07-24T08:03:58.927Z,7.57
2018-07-24T08:06:29.637Z,9.33
2018-07-24T08:09:01.238Z,7.40
2018-07-24T08:11:31.633Z,8.80
2018-07-24T08:14:02.653Z,7.43
2018-07-24T08:16:33.696Z,5.70
2018-07-24T08:19:04.183Z,6.50
2018-07-24T08:21:34.254Z,7.53
2018-07-24T08:24:03.650Z,7.30
2018-07-24T08:26:34.314Z,7.27
2018-07-24T08:29:05.173Z,5.90
2018-07-24T08:31:36.699Z,6.70
2018-07-24T08:34:07.938Z,6.97
2018-07-24T08:36:38.634Z,6.33
2018-07-24T08:39:12.737Z,5.77
2018-07-24T08:41:44.281Z,6.53
2018-07-24T08:44:16.954Z,5.90
2018-07-24T08:46:47.953Z,7.47
2018-07-24T08:49:19.956Z,5.83
2018-07-24T08:51:50.700Z,6.00
2018-07-24T08:54:21.945Z,10.80
2018-07-24T08:56:53.036Z,6.03
2018-07-24T08:59:23.655Z,6.17
2018-07-24T09:01:54.667Z,6.50
2018-07-24T09:04:26.655Z,6.73
2018-07-24T09:06:58.066Z,6.83
2018-07-24T09:09:29.218Z,8.50
2018-07-24T09:12:00.791Z,6.90
2018-07-24T09:14:32.312Z,6.33
2018-07-24T09:17:03.556Z,5.83
2018-07-24T09:19:34.533Z,6.47
2018-07-24T09:22:05.441Z,15.20
2018-07-24T09:24:37.179Z,5.80
2018-07-24T09:27:08.960Z,8.10
2018-07-24T09:29:39.555Z,6.40
2018-07-24T09:32:10.307Z,8.33
2018-07-24T09:34:41.515Z,5.57
2018-07-24T09:37:12.730Z,10.10
2018-07-24T09:39:43.986Z,7.77
2018-07-24T09:42:14.280Z,6.83
2018-07-24T09:44:44.492Z,5.70
2018-07-24T09:47:15.727Z,5.20
2018-07-24T09:49:46.448Z,5.07
2018-07-24T09:52:16.902Z,5.53
2018-07-24T09:54:47.955Z,6.83
2018-07-24T09:57:18.907Z,5.57
2018-07-24T09:59:49.900Z,4.87
2018-07-24T10:02:21.574Z,5.07
2018-07-24T10:04:51.472Z,5.73
2018-07-24T10:07:22.601Z,8.50
2018-07-24T10:09:53.009Z,6.07
2018-07-24T10:12:24.003Z,5.87
2018-07-24T10:14:55.264Z,5.10
2018-07-24T10:17:26.392Z,5.27
2018-07-24T10:19:57.321Z,7.50
2018-07-24T10:22:28.114Z,5.10
2018-07-24T10:24:59.890Z,5.17
2018-07-24T10:27:31.412Z,4.50
2018-07-24T10:30:03.240Z,5.93
2018-07-24T10:32:34.007Z,6.00
2018-07-24T10:35:05.827Z,6.20
2018-07-24T10:37:36.943Z,5.70
2018-07-24T10:40:08.724Z,6.50
2018-07-24T10:42:40.961Z,5.73
2018-07-24T10:45:14.056Z,7.40
2018-07-24T10:47:46.547Z,5.47
2018-07-24T10:50:17.366Z,5.50
2018-07-24T10:52:48.364Z,5.97
2018-07-24T10:55:19.090Z,6.40
2018-07-24T10:57:50.915Z,7.83
2018-07-24T11:00:21.519Z,6.07
2018-07-24T11:02:52.806Z,8.47
2018-07-24T11:05:26.057Z,7.37
2018-07-24T11:07:57.511Z,5.60
2018-07-24T11:10:28.822Z,6.70
2018-07-24T11:13:00.326Z,7.83
2018-07-24T11:15:31.854Z,5.60
2018-07-24T11:18:02.898Z,5.30
2018-07-24T11:20:33.741Z,8.50
2018-07-24T11:23:04.991Z,6.43
2018-07-24T11:25:37.277Z,6.20
2018-07-24T11:28:08.835Z,5.27
2018-07-24T11:30:40.000Z,6.50
2018-07-24T11:33:10.978Z,6.20
2018-07-24T11:35:42.108Z,6.13
2018-07-24T11:38:13.376Z,6.57
2018-07-24T11:40:44.726Z,6.13
2018-07-24T11:43:16.250Z,7.17
2018-07-24T11:45:48.381Z,5.57
2018-07-24T11:48:19.533Z,6.33
2018-07-24T11:50:50.672Z,5.80
2018-07-24T11:53:21.656Z,5.97
2018-07-24T11:55:52.582Z,6.17
2018-07-24T11:58:23.795Z,6.70
2018-07-24T12:00:55.279Z,6.30
2018-07-24T12:03:26.544Z,5.57
2018-07-24T12:05:57.847Z,5.43
2018-07-24T12:08:28.572Z,5.83
2018-07-24T12:10:59.923Z,6.20
2018-07-24T12:13:30.386Z,11.17
2018-07-24T12:16:02.341Z,6.30
2018-07-24T12:18:33.245Z,5.67
2018-07-24T12:21:03.855Z,5.70
2018-07-24T12:23:34.243Z,5.43
2018-07-24T12:26:05.146Z,6.70
2018-07-24T12:28:35.562Z,5.80
2018-07-24T12:31:06.838Z,7.40
2018-07-24T12:33:38.034Z,6.23
2018-07-24T12:36:09.326Z,5.83
2018-07-24T12:38:40.272Z,6.27
2018-07-24T12:41:12.911Z,5.27
2018-07-24T12:43:43.286Z,5.10
2018-07-24T12:46:13.495Z,9.57
2018-07-24T12:48:43.476Z,5.70
2018-07-24T12:51:14.450Z,6.37
2018-07-24T12:53:45.589Z,6.40
2018-07-24T12:56:17.296Z,6.83
2018-07-24T12:58:47.154Z,5.90
2018-07-24T13:01:17.987Z,6.37
2018-07-24T13:03:48.863Z,7.27
2018-07-24T13:06:19.040Z,6.67
2018-07-24T13:08:49.607Z,6.27
2018-07-24T13:11:21.374Z,7.17
2018-07-24T13:13:53.194Z,7.60
2018-07-24T13:16:24.313Z,6.87
2018-07-24T13:18:55.738Z,9.60
2018-07-24T13:21:26.735Z,7.80
2018-07-24T13:23:58.403Z,9.87
2018-07-24T13:26:29.804Z,6.27
2018-07-24T13:29:01.294Z,7.23
2018-07-24T13:31:32.799Z,6.30
2018-07-24T13:34:03.693Z,6.30
2018-07-24T13:36:35.039Z,6.50
2018-07-24T13:39:08.462Z,8.60
2018-07-24T13:41:39.840Z,6.00
2018-07-24T13:44:10.773Z,6.20
2018-07-24T13:46:42.252Z,8.07
2018-07-24T13:49:12.489Z,6.50
2018-07-24T13:51:43.613Z,6.37
2018-07-24T13:54:14.539Z,7.40
2018-07-24T13:56:45.358Z,6.63
2018-07-24T13:59:15.957Z,5.80
2018-07-24T14:01:47.551Z,7.53
2018-07-24T14:04:18.987Z,6.83
2018-07-24T14:06:49.095Z,6.60
2018-07-24T14:09:20.517Z,5.63
2018-07-24T14:11:51.554Z,7.30
2018-07-24T14:14:22.290Z,7.30
2018-07-24T14:16:53.323Z,5.97
2018-07-24T14:19:24.298Z,6.60
2018-07-24T14:21:55.765Z,7.20
2018-07-24T14:24:26.009Z,7.60
2018-07-24T14:26:58.574Z,6.70
2018-07-24T14:29:29.908Z,6.70
2018-07-24T14:32:01.120Z,6.70
2018-07-24T14:34:31.709Z,6.60
2018-07-24T14:37:02.728Z,7.37
2018-07-24T14:39:33.793Z,7.60
2018-07-24T14:42:03.938Z,5.63
2018-07-24T14:44:35.671Z,6.00
2018-07-24T14:47:07.704Z,6.83
2018-07-24T14:49:37.269Z,6.87
2018-07-24T14:52:09.251Z,6.83
2018-07-24T14:54:40.496Z,7.00
2018-07-24T14:57:11.559Z,6.40
2018-07-24T14:59:41.260Z,6.10
2018-07-24T15:02:13.083Z,6.90
2018-07-24T15:04:44.476Z,6.23
2018-07-24T15:07:15.427Z,7.30
2018-07-24T15:09:46.190Z,7.03
2018-07-24T15:12:16.938Z,6.30
2018-07-24T15:14:47.591Z,7.27
2018-07-24T15:17:18.424Z,6.90
2018-07-24T15:19:49.141Z,7.30
2018-07-24T15:22:20.141Z,6.40
2018-07-24T15:24:50.559Z,5.77
2018-07-24T15:27:21.248Z,5.97
2018-07-24T15:29:51.271Z,6.07
2018-07-24T15:32:21.501Z,6.90
2018-07-24T15:34:52.318Z,6.40
2018-07-24T15:37:23.433Z,6.10
2018-07-24T15:39:54.028Z,7.17
2018-07-24T15:42:25.341Z,7.37
2018-07-24T15:44:56.615Z,6.80
2018-07-24T15:47:27.376Z,7.27
2018-07-24T15:49:58.961Z,6.90
2018-07-24T15:52:30.093Z,7.60
2018-07-24T15:55:00.994Z,7.33
2018-07-24T15:57:33.151Z,7.10
2018-07-24T16:00:04.410Z,7.10
2018-07-24T16:02:35.925Z,6.67
2018-07-24T16:05:07.821Z,7.30
2018-07-24T16:07:38.717Z,6.90
2018-07-24T16:10:09.741Z,8.00
2018-07-24T16:12:41.770Z,7.20
2018-07-24T16:15:12.989Z,7.77
2018-07-24T16:17:43.830Z,6.63
2018-07-24T16:20:14.478Z,7.23
2018-07-24T16:22:45.223Z,7.33
2018-07-24T16:25:16.291Z,6.97
2018-07-24T16:27:47.664Z,8.13
2018-07-24T16:30:18.162Z,7.20
2018-07-24T16:32:49.235Z,6.73
2018-07-24T16:35:20.759Z,6.47
2018-07-24T16:37:52.441Z,9.23
2018-07-24T16:40:23.335Z,7.53
2018-07-24T16:42:54.219Z,6.80
2018-07-24T16:45:25.518Z,7.47
2018-07-24T16:47:56.768Z,7.30
2018-07-24T16:50:28.320Z,6.83
2018-07-24T16:53:00.821Z,7.73
2018-07-24T16:55:31.884Z,9.93
2018-07-24T16:58:03.140Z,6.43
2018-07-24T17:00:33.684Z,7.10
2018-07-24T17:03:05.422Z,7.87
2018-07-24T17:05:35.955Z,6.50
2018-07-24T17:08:07.018Z,7.00
2018-07-24T17:10:38.063Z,7.23
2018-07-24T17:13:09.204Z,7.30
2018-07-24T17:15:39.615Z,8.00
2018-07-24T17:18:10.666Z,8.27
2018-07-24T17:20:41.020Z,7.47
2018-07-24T17:23:12.115Z,7.23
2018-07-24T17:25:42.913Z,7.37
2018-07-24T17:28:15.106Z,7.60
2018-07-24T17:30:46.266Z,7.07
2018-07-24T17:33:17.982Z,9.33
2018-07-24T17:35:47.992Z,6.93
2018-07-24T17:38:18.590Z,7.50
2018-07-24T17:40:48.965Z,8.03
2018-07-24T17:43:20.481Z,7.10
2018-07-24T17:45:51.277Z,7.50
2018-07-24T17:48:21.194Z,7.53
2018-07-24T17:50:51.666Z,8.20
2018-07-24T17:53:22.052Z,7.43
2018-07-24T17:55:53.394Z,10.53
2018-07-24T17:58:23.886Z,8.80
2018-07-24T18:00:54.630Z,7.63
2018-07-24T18:03:25.167Z,8.67
2018-07-24T18:05:55.769Z,7.03
2018-07-24T18:08:29.338Z,7.47
2018-07-24T18:11:00.212Z,7.50
2018-07-24T18:13:30.809Z,7.47
2018-07-24T18:16:01.565Z,7.30
2018-07-24T18:18:33.355Z,7.63
2018-07-24T18:21:05.069Z,9.23
2018-07-24T18:23:35.260Z,8.50
2018-07-24T18:26:06.286Z,7.90
2018-07-24T18:28:38.302Z,7.03
2018-07-24T18:31:09.188Z,8.83
2018-07-24T18:33:40.373Z,8.70
2018-07-24T18:36:11.355Z,9.43
2018-07-24T18:38:43.102Z,8.10
2018-07-24T18:41:14.464Z,10.13
2018-07-24T18:43:45.641Z,7.40
2018-07-24T18:46:16.982Z,7.03
2018-07-24T18:48:48.301Z,7.13
2018-07-24T18:51:19.306Z,8.20
2018-07-24T18:53:50.500Z,7.80
2018-07-24T18:56:21.929Z,8.07
2018-07-24T18:58:53.512Z,7.20
2018-07-24T19:01:23.978Z,8.00
2018-07-24T19:03:55.825Z,10.70
2018-07-24T19:06:27.619Z,8.20
2018-07-24T19:08:59.065Z,8.00
2018-07-24T19:11:29.283Z,7.90
2018-07-24T19:13:59.974Z,7.63
2018-07-24T19:16:30.345Z,8.60
2018-07-24T19:19:02.204Z,9.10
2018-07-24T19:21:33.004Z,8.47
2018-07-24T19:24:04.438Z,8.13
2018-07-24T19:26:35.341Z,7.73
2018-07-24T19:29:06.509Z,8.80
2018-07-24T19:31:37.498Z,8.20
2018-07-24T19:34:07.806Z,7.80
2018-07-24T19:36:38.577Z,8.70
2018-07-24T19:39:11.048Z,8.73
2018-07-24T19:41:41.764Z,8.63
2018-07-24T19:44:12.760Z,9.00
2018-07-24T19:46:43.641Z,7.93
2018-07-24T19:49:14.869Z,9.90
2018-07-24T19:51:45.261Z,8.80
2018-07-24T19:54:16.203Z,7.20
2018-07-24T19:56:47.160Z,7.97
2018-07-24T19:59:19.203Z,8.37
2018-07-24T20:01:50.643Z,7.67
2018-07-24T20:04:21.237Z,8.63
2018-07-24T20:06:51.529Z,9.23
2018-07-24T20:09:22.876Z,9.43
2018-07-24T20:11:53.308Z,8.93
2018-07-24T20:14:24.627Z,9.47
2018-07-24T20:16:56.118Z,8.83
2018-07-24T20:19:27.106Z,9.33
2018-07-24T20:21:57.996Z,13.10
2018-07-24T20:24:28.797Z,8.80
2018-07-24T20:26:59.767Z,9.40
2018-07-24T20:29:30.448Z,8.70
2018-07-24T20:32:00.926Z,8.60
2018-07-24T20:34:32.927Z,8.43
2018-07-24T20:37:04.488Z,8.10
2018-07-24T20:39:36.391Z,9.00
2018-07-24T20:42:07.560Z,8.17
2018-07-24T20:44:38.715Z,8.77
2018-07-24T20:47:10.199Z,10.13
2018-07-24T20:49:41.725Z,8.17
2018-07-24T20:52:12.271Z,8.20
2018-07-24T20:54:44.173Z,9.00
2018-07-24T20:57:15.004Z,8.47
2018-07-24T20:59:47.527Z,8.30
2018-07-24T21:02:19.116Z,9.23
2018-07-24T21:04:50.293Z,8.87
2018-07-24T21:07:21.292Z,9.27
2018-07-24T21:09:54.084Z,9.20
2018-07-24T21:12:25.664Z,9.20
2018-07-24T21:14:57.663Z,9.00
2018-07-24T21:17:28.184Z,8.80
2018-07-24T21:20:00.090Z,9.37
2018-07-24T21:22:30.992Z,9.43
2018-07-24T21:25:01.562Z,9.77
2018-07-24T21:27:32.042Z,11.00
2018-07-24T21:30:05.842Z,9.20
2018-07-24T21:32:37.395Z,9.20
2018-07-24T21:35:08.649Z,9.30
2018-07-24T21:37:39.465Z,9.97
2018-07-24T21:40:09.868Z,9.60
2018-07-24T21:42:41.221Z,14.80
2018-07-24T21:45:12.435Z,9.43
2018-07-24T21:47:43.114Z,11.03
2018-07-24T21:50:14.332Z,9.43
2018-07-24T21:52:44.709Z,9.47
2018-07-24T21:55:15.885Z,10.63
2018-07-24T21:57:47.012Z,9.83
2018-07-24T22:00:18.907Z,10.30
2018-07-24T22:02:50.470Z,9.60
2018-07-24T22:05:22.160Z,9.57
2018-07-24T22:07:54.272Z,9.93
2018-07-24T22:10:25.123Z,9.30
2018-07-24T22:12:56.265Z,11.43
2018-07-24T22:15:29.297Z,9.67
2018-07-24T22:18:00.887Z,11.00
2018-07-24T22:20:31.974Z,10.70
2018-07-24T22:23:02.081Z,9.73
2018-07-24T22:25:33.597Z,10.70
2018-07-24T22:28:04.715Z,9.87
2018-07-24T22:30:35.634Z,10.97
2018-07-24T22:33:06.485Z,10.27
2018-07-24T22:35:38.016Z,10.60
2018-07-24T22:38:09.205Z,10.57
2018-07-24T22:40:41.341Z,11.20
2018-07-24T22:43:12.597Z,10.60
2018-07-24T22:45:44.853Z,10.97
2018-07-24T22:48:16.484Z,10.03
2018-07-24T22:50:48.221Z,10.80
2018-07-24T22:53:18.840Z,11.70
2018-07-24T22:55:50.668Z,10.10
2018-07-24T22:58:21.894Z,13.20
2018-07-24T23:00:54.071Z,10.60
2018-07-24T23:03:25.158Z,12.17
2018-07-24T23:05:57.706Z,10.43
2018-07-24T23:08:30.043Z,11.20
2018-07-24T23:11:02.573Z,11.47
2018-07-24T23:13:34.562Z,11.37
2018-07-24T23:16:06.166Z,11.37
2018-07-24T23:18:38.016Z,11.80
2018-07-24T23:21:09.651Z,11.53
2018-07-24T23:23:40.240Z,11.53
2018-07-24T23:26:11.244Z,12.83
2018-07-24T23:28:42.537Z,11.63
2018-07-24T23:31:13.717Z,11.40
2018-07-24T23:33:45.043Z,12.23
2018-07-24T23:36:15.464Z,13.70
2018-07-24T23:38:46.826Z,10.90
2018-07-24T23:41:17.942Z,11.70
2018-07-24T23:43:49.478Z,12.23
2018-07-24T23:46:20.699Z,11.57
2018-07-24T23:48:52.456Z,11.83
2018-07-24T23:51:23.508Z,11.70
2018-07-24T23:53:55.486Z,11.67
2018-07-24T23:56:26.572Z,11.80
2018-07-24T23:58:58.574Z,11.47
